sensor_id;sensor_type;location;lat;lon;timestamp;pressure;altitude;pressure_sealevel;temperature;humidity
21742;BME280;11033;47.490;11.116;2023-11-21T00:02:01;92610.25;;;5.95;83.42
21742;BME280;11033;47.490;11.116;2023-11-21T00:04:26;92599.31;;;6.00;83.51
21742;BME280;11033;47.490;11.116;2023-11-21T00:06:53;92604.97;;;5.95;84.21
21742;BME280;11033;47.490;11.116;2023-11-21T00:09:18;92601.59;;;5.94;83.74
21742;BME280;11033;47.490;11.116;2023-11-21T00:11:44;92598.66;;;5.78;84.86
21742;BME280;11033;47.490;11.116;2023-11-21T00:14:13;92600.13;;;5.90;84.82
21742;BME280;11033;47.490;11.116;2023-11-21T00:16:40;92599.34;;;5.93;83.86
21742;BME280;11033;47.490;11.116;2023-11-21T00:19:06;92594.50;;;5.88;84.58
21742;BME280;11033;47.490;11.116;2023-11-21T00:21:31;92588.25;;;5.57;86.22
21742;BME280;11033;47.490;11.116;2023-11-21T00:23:56;92584.00;;;5.80;84.27
21742;BME280;11033;47.490;11.116;2023-11-21T00:26:21;92588.47;;;5.91;82.92
21742;BME280;11033;47.490;11.116;2023-11-21T00:28:47;92588.69;;;5.41;86.24
21742;BME280;11033;47.490;11.116;2023-11-21T00:31:12;92586.69;;;5.66;84.91
21742;BME280;11033;47.490;11.116;2023-11-21T00:33:37;92579.09;;;5.79;83.80
21742;BME280;11033;47.490;11.116;2023-11-21T00:36:03;92578.00;;;5.76;84.29
21742;BME280;11033;47.490;11.116;2023-11-21T00:38:28;92584.16;;;5.45;85.73
21742;BME280;11033;47.490;11.116;2023-11-21T00:40:53;92583.44;;;5.41;86.14
21742;BME280;11033;47.490;11.116;2023-11-21T00:43:22;92578.81;;;5.63;85.42
21742;BME280;11033;47.490;11.116;2023-11-21T00:45:48;92582.56;;;5.69;84.03
21742;BME280;11033;47.490;11.116;2023-11-21T00:48:14;92591.00;;;5.35;86.82
21742;BME280;11033;47.490;11.116;2023-11-21T00:50:40;92586.81;;;5.45;86.24
21742;BME280;11033;47.490;11.116;2023-11-21T00:53:05;92587.16;;;5.54;85.65
21742;BME280;11033;47.490;11.116;2023-11-21T00:55:32;92583.75;;;5.57;84.34
21742;BME280;11033;47.490;11.116;2023-11-21T00:57:58;92602.66;;;5.31;86.42
21742;BME280;11033;47.490;11.116;2023-11-21T01:00:23;92601.03;;;5.51;85.46
21742;BME280;11033;47.490;11.116;2023-11-21T01:02:49;92596.91;;;5.57;84.04
21742;BME280;11033;47.490;11.116;2023-11-21T01:05:14;92596.88;;;5.61;84.06
21742;BME280;11033;47.490;11.116;2023-11-21T01:07:39;92597.69;;;5.51;85.59
21742;BME280;11033;47.490;11.116;2023-11-21T01:10:05;92586.00;;;5.52;85.45
21742;BME280;11033;47.490;11.116;2023-11-21T01:12:36;92582.22;;;5.56;84.72
21742;BME280;11033;47.490;11.116;2023-11-21T01:15:03;92584.56;;;5.40;85.95
21742;BME280;11033;47.490;11.116;2023-11-21T01:17:28;92581.16;;;5.47;85.53
21742;BME280;11033;47.490;11.116;2023-11-21T01:19:54;92584.88;;;5.53;84.99
21742;BME280;11033;47.490;11.116;2023-11-21T01:22:19;92586.41;;;5.50;84.83
21742;BME280;11033;47.490;11.116;2023-11-21T01:24:50;92581.13;;;5.54;85.34
21742;BME280;11033;47.490;11.116;2023-11-21T01:27:16;92577.38;;;5.51;85.41
21742;BME280;11033;47.490;11.116;2023-11-21T01:29:42;92577.38;;;5.51;84.28
21742;BME280;11033;47.490;11.116;2023-11-21T01:32:07;92570.34;;;5.30;85.75
21742;BME280;11033;47.490;11.116;2023-11-21T01:34:33;92576.31;;;5.38;84.92
21742;BME280;11033;47.490;11.116;2023-11-21T01:36:58;92582.34;;;5.39;85.43
21742;BME280;11033;47.490;11.116;2023-11-21T01:39:24;92586.81;;;5.42;85.36
21742;BME280;11033;47.490;11.116;2023-11-21T01:41:51;92583.81;;;5.47;84.79
21742;BME280;11033;47.490;11.116;2023-11-21T01:44:17;92581.50;;;5.52;83.21
21742;BME280;11033;47.490;11.116;2023-11-21T01:46:44;92582.25;;;5.53;84.47
21742;BME280;11033;47.490;11.116;2023-11-21T01:49:10;92582.28;;;5.49;85.11
21742;BME280;11033;47.490;11.116;2023-11-21T01:51:38;92576.28;;;5.45;85.25
21742;BME280;11033;47.490;11.116;2023-11-21T01:54:05;92581.53;;;5.49;83.79
21742;BME280;11033;47.490;11.116;2023-11-21T01:56:30;92577.81;;;5.43;84.89
21742;BME280;11033;47.490;11.116;2023-11-21T01:58:57;92575.59;;;5.34;86.18
21742;BME280;11033;47.490;11.116;2023-11-21T02:01:22;92569.50;;;5.44;85.01
21742;BME280;11033;47.490;11.116;2023-11-21T02:03:47;92574.41;;;5.46;84.90
21742;BME280;11033;47.490;11.116;2023-11-21T02:06:13;92570.69;;;5.32;86.72
21742;BME280;11033;47.490;11.116;2023-11-21T02:08:38;92568.78;;;5.36;85.93
21742;BME280;11033;47.490;11.116;2023-11-21T02:11:05;92566.63;;;5.24;87.15
21742;BME280;11033;47.490;11.116;2023-11-21T02:13:31;92567.34;;;5.32;86.54
21742;BME280;11033;47.490;11.116;2023-11-21T02:15:57;92567.28;;;5.43;85.98
21742;BME280;11033;47.490;11.116;2023-11-21T02:18:23;92565.78;;;5.42;85.44
21742;BME280;11033;47.490;11.116;2023-11-21T02:20:48;92565.00;;;5.48;85.47
21742;BME280;11033;47.490;11.116;2023-11-21T02:23:13;92574.78;;;5.44;84.46
21742;BME280;11033;47.490;11.116;2023-11-21T02:25:39;92568.78;;;5.47;84.55
21742;BME280;11033;47.490;11.116;2023-11-21T02:28:07;92568.78;;;5.47;86.05
21742;BME280;11033;47.490;11.116;2023-11-21T02:30:33;92577.38;;;5.51;84.93
21742;BME280;11033;47.490;11.116;2023-11-21T02:32:59;92571.84;;;5.31;87.02
21742;BME280;11033;47.490;11.116;2023-11-21T02:35:24;92572.88;;;5.48;86.20
21742;BME280;11033;47.490;11.116;2023-11-21T02:37:53;92568.00;;;5.50;86.94
21742;BME280;11033;47.490;11.116;2023-11-21T02:40:19;92567.97;;;5.54;86.51
21742;BME280;11033;47.490;11.116;2023-11-21T02:42:48;92567.97;;;5.57;85.89
21742;BME280;11033;47.490;11.116;2023-11-21T02:45:16;92558.16;;;5.61;86.08
21742;BME280;11033;47.490;11.116;2023-11-21T02:47:45;92557.38;;;5.64;84.85
21742;BME280;11033;47.490;11.116;2023-11-21T02:50:11;92554.72;;;5.68;84.82
21742;BME280;11033;47.490;11.116;2023-11-21T02:52:36;92548.72;;;5.67;84.34
21742;BME280;11033;47.490;11.116;2023-11-21T02:55:02;92549.84;;;5.66;85.36
21742;BME280;11033;47.490;11.116;2023-11-21T02:57:28;92539.69;;;5.68;84.86
21742;BME280;11033;47.490;11.116;2023-11-21T02:59:53;92541.19;;;5.69;84.71
21742;BME280;11033;47.490;11.116;2023-11-21T03:02:19;92542.34;;;5.65;85.04
21742;BME280;11033;47.490;11.116;2023-11-21T03:04:45;92540.09;;;5.63;85.12
21742;BME280;11033;47.490;11.116;2023-11-21T03:07:10;92540.06;;;5.67;84.50
21742;BME280;11033;47.490;11.116;2023-11-21T03:09:35;92537.44;;;5.67;84.81
21742;BME280;11033;47.490;11.116;2023-11-21T03:12:01;92544.25;;;5.61;84.75
21742;BME280;11033;47.490;11.116;2023-11-21T03:14:26;92537.88;;;5.62;84.67
21742;BME280;11033;47.490;11.116;2023-11-21T03:16:51;92538.97;;;5.64;84.38
21742;BME280;11033;47.490;11.116;2023-11-21T03:19:16;92532.63;;;5.58;84.78
21742;BME280;11033;47.490;11.116;2023-11-21T03:21:42;92536.38;;;5.57;84.43
21742;BME280;11033;47.490;11.116;2023-11-21T03:24:07;92528.56;;;5.47;85.02
21742;BME280;11033;47.490;11.116;2023-11-21T03:26:33;92531.25;;;5.29;85.23
21742;BME280;11033;47.490;11.116;2023-11-21T03:28:58;92535.75;;;5.35;85.76
21742;BME280;11033;47.490;11.116;2023-11-21T03:31:23;92533.13;;;5.39;84.92
21742;BME280;11033;47.490;11.116;2023-11-21T03:33:48;92526.69;;;5.40;84.63
21742;BME280;11033;47.490;11.116;2023-11-21T03:36:14;92536.84;;;5.42;84.94
21742;BME280;11033;47.490;11.116;2023-11-21T03:38:43;92533.44;;;5.45;84.73
21742;BME280;11033;47.490;11.116;2023-11-21T03:41:08;92527.41;;;5.48;84.10
21742;BME280;11033;47.490;11.116;2023-11-21T03:43:35;92523.69;;;5.42;84.91
21742;BME280;11033;47.490;11.116;2023-11-21T03:46:01;92528.97;;;5.38;85.06
21742;BME280;11033;47.490;11.116;2023-11-21T03:48:26;92536.94;;;5.24;86.42
21742;BME280;11033;47.490;11.116;2023-11-21T03:50:51;92536.25;;;5.09;87.36
21742;BME280;11033;47.490;11.116;2023-11-21T03:53:17;92533.88;;;5.32;85.17
21742;BME280;11033;47.490;11.116;2023-11-21T03:55:42;92532.41;;;5.28;85.88
21742;BME280;11033;47.490;11.116;2023-11-21T03:58:07;92532.78;;;5.26;86.55
21742;BME280;11033;47.490;11.116;2023-11-21T04:00:32;92530.16;;;5.26;86.48
21742;BME280;11033;47.490;11.116;2023-11-21T04:02:58;92521.88;;;5.31;86.28
21742;BME280;11033;47.490;11.116;2023-11-21T04:05:23;92533.88;;;5.36;85.97
21742;BME280;11033;47.490;11.116;2023-11-21T04:07:49;92523.34;;;5.40;85.25
21742;BME280;11033;47.490;11.116;2023-11-21T04:10:16;92528.59;;;5.43;84.56
21742;BME280;11033;47.490;11.116;2023-11-21T04:12:41;92510.19;;;5.40;84.72
21742;BME280;11033;47.490;11.116;2023-11-21T04:15:07;92517.34;;;5.39;84.63
21742;BME280;11033;47.490;11.116;2023-11-21T04:17:34;92525.22;;;5.39;85.03
21742;BME280;11033;47.490;11.116;2023-11-21T04:19:59;92522.19;;;5.41;84.94
21742;BME280;11033;47.490;11.116;2023-11-21T04:22:24;92528.72;;;5.15;86.51
21742;BME280;11033;47.490;11.116;2023-11-21T04:24:49;92517.03;;;5.23;87.15
21742;BME280;11033;47.490;11.116;2023-11-21T04:27:15;92520.34;;;5.34;87.07
21742;BME280;11033;47.490;11.116;2023-11-21T04:29:43;92525.25;;;5.35;86.21
21742;BME280;11033;47.490;11.116;2023-11-21T04:32:08;92521.44;;;5.40;85.68
21742;BME280;11033;47.490;11.116;2023-11-21T04:34:34;92524.50;;;5.35;86.73
21742;BME280;11033;47.490;11.116;2023-11-21T04:36:59;92535.78;;;5.32;86.94
21742;BME280;11033;47.490;11.116;2023-11-21T04:39:26;92535.34;;;5.41;85.99
21742;BME280;11033;47.490;11.116;2023-11-21T04:41:51;92531.94;;;5.44;85.72
21742;BME280;11033;47.490;11.116;2023-11-21T04:44:16;92537.94;;;5.44;86.82
21742;BME280;11033;47.490;11.116;2023-11-21T04:46:42;92540.19;;;5.49;85.81
21742;BME280;11033;47.490;11.116;2023-11-21T04:49:07;92538.31;;;5.46;87.31
21742;BME280;11033;47.490;11.116;2023-11-21T04:51:32;92539.41;;;5.52;85.49
21742;BME280;11033;47.490;11.116;2023-11-21T04:53:58;92544.31;;;5.54;85.43
21742;BME280;11033;47.490;11.116;2023-11-21T04:56:23;92538.63;;;5.55;85.39
21742;BME280;11033;47.490;11.116;2023-11-21T04:58:48;92537.13;;;5.58;85.40
21742;BME280;11033;47.490;11.116;2023-11-21T05:01:14;92541.25;;;5.59;84.97
21742;BME280;11033;47.490;11.116;2023-11-21T05:03:39;92542.41;;;5.58;85.61
21742;BME280;11033;47.490;11.116;2023-11-21T05:06:05;92545.78;;;5.51;85.53
21742;BME280;11033;47.490;11.116;2023-11-21T05:08:30;92546.53;;;5.55;86.52
21742;BME280;11033;47.490;11.116;2023-11-21T05:10:56;92543.16;;;5.51;87.09
21742;BME280;11033;47.490;11.116;2023-11-21T05:13:21;92542.00;;;5.59;86.58
21742;BME280;11033;47.490;11.116;2023-11-21T05:15:47;92541.59;;;5.64;84.52
21742;BME280;11033;47.490;11.116;2023-11-21T05:18:12;92539.31;;;5.66;84.71
21742;BME280;11033;47.490;11.116;2023-11-21T05:20:41;92539.72;;;5.65;85.06
21742;BME280;11033;47.490;11.116;2023-11-21T05:23:07;92546.09;;;5.67;85.47
21742;BME280;11033;47.490;11.116;2023-11-21T05:25:33;92548.00;;;5.63;85.54
21742;BME280;11033;47.490;11.116;2023-11-21T05:27:58;92546.09;;;5.64;85.47
21742;BME280;11033;47.490;11.116;2023-11-21T05:30:26;92551.38;;;5.64;85.94
21742;BME280;11033;47.490;11.116;2023-11-21T05:32:51;92549.84;;;5.66;84.31
21742;BME280;11033;47.490;11.116;2023-11-21T05:35:17;92549.88;;;5.63;84.48
21742;BME280;11033;47.490;11.116;2023-11-21T05:37:43;92554.44;;;5.52;85.53
21742;BME280;11033;47.490;11.116;2023-11-21T05:40:09;92561.56;;;5.58;86.22
21742;BME280;11033;47.490;11.116;2023-11-21T05:42:35;92562.28;;;5.59;85.90
21742;BME280;11033;47.490;11.116;2023-11-21T05:45:02;92572.81;;;5.59;86.47
21742;BME280;11033;47.490;11.116;2023-11-21T05:47:39;92569.06;;;5.60;86.84
21742;BME280;11033;47.490;11.116;2023-11-21T05:50:06;92578.47;;;5.61;85.46
21742;BME280;11033;47.490;11.116;2023-11-21T05:52:34;92569.03;;;5.63;86.51
21742;BME280;11033;47.490;11.116;2023-11-21T05:55:00;92566.41;;;5.63;86.43
21742;BME280;11033;47.490;11.116;2023-11-21T05:57:25;92565.66;;;5.63;86.55
21742;BME280;11033;47.490;11.116;2023-11-21T05:59:50;92564.16;;;5.65;85.69
21742;BME280;11033;47.490;11.116;2023-11-21T06:02:16;92570.91;;;5.66;86.18
21742;BME280;11033;47.490;11.116;2023-11-21T06:04:41;92573.19;;;5.64;85.70
21742;BME280;11033;47.490;11.116;2023-11-21T06:07:07;92578.78;;;5.66;85.85
21742;BME280;11033;47.490;11.116;2023-11-21T06:09:32;92577.34;;;5.62;86.67
21742;BME280;11033;47.490;11.116;2023-11-21T06:11:58;92584.44;;;5.65;86.56
21742;BME280;11033;47.490;11.116;2023-11-21T06:14:23;92578.09;;;5.62;87.22
21742;BME280;11033;47.490;11.116;2023-11-21T06:16:49;92580.69;;;5.66;85.85
21742;BME280;11033;47.490;11.116;2023-11-21T06:19:16;92584.44;;;5.68;85.62
21742;BME280;11033;47.490;11.116;2023-11-21T06:21:45;92590.44;;;5.69;86.17
21742;BME280;11033;47.490;11.116;2023-11-21T06:24:10;92587.06;;;5.68;85.55
21742;BME280;11033;47.490;11.116;2023-11-21T06:26:36;92592.72;;;5.63;85.97
21742;BME280;11033;47.490;11.116;2023-11-21T06:29:01;92600.22;;;5.68;85.09
21742;BME280;11033;47.490;11.116;2023-11-21T06:31:28;92605.09;;;5.66;86.60
21742;BME280;11033;47.490;11.116;2023-11-21T06:33:54;92595.72;;;5.69;85.86
21742;BME280;11033;47.490;11.116;2023-11-21T06:36:19;92606.25;;;5.69;86.19
21742;BME280;11033;47.490;11.116;2023-11-21T06:38:44;92604.34;;;5.69;86.36
21742;BME280;11033;47.490;11.116;2023-11-21T06:41:11;92616.75;;;5.69;86.45
21742;BME280;11033;47.490;11.116;2023-11-21T06:43:37;92614.88;;;5.69;86.32
21742;BME280;11033;47.490;11.116;2023-11-21T06:46:03;92611.47;;;5.72;86.01
21742;BME280;11033;47.490;11.116;2023-11-21T06:48:29;92611.09;;;5.70;87.33
21742;BME280;11033;47.490;11.116;2023-11-21T06:50:55;92611.50;;;5.69;88.28
21742;BME280;11033;47.490;11.116;2023-11-21T06:53:20;92612.97;;;5.77;86.06
21742;BME280;11033;47.490;11.116;2023-11-21T06:55:45;92620.88;;;5.73;86.45
21742;BME280;11033;47.490;11.116;2023-11-21T06:58:11;92617.09;;;5.74;86.85
21742;BME280;11033;47.490;11.116;2023-11-21T07:00:36;92609.19;;;5.74;86.99
21742;BME280;11033;47.490;11.116;2023-11-21T07:03:01;92615.94;;;5.79;86.63
21742;BME280;11033;47.490;11.116;2023-11-21T07:05:27;92607.28;;;5.78;86.60
21742;BME280;11033;47.490;11.116;2023-11-21T07:07:52;92618.22;;;5.80;87.58
21742;BME280;11033;47.490;11.116;2023-11-21T07:10:19;92620.47;;;5.78;87.64
21742;BME280;11033;47.490;11.116;2023-11-21T07:12:44;92619.34;;;5.79;87.33
21742;BME280;11033;47.490;11.116;2023-11-21T07:15:10;92617.03;;;5.85;87.64
21742;BME280;11033;47.490;11.116;2023-11-21T07:17:35;92621.94;;;5.87;87.74
21742;BME280;11033;47.490;11.116;2023-11-21T07:20:03;92623.44;;;5.91;86.76
21742;BME280;11033;47.490;11.116;2023-11-21T07:22:30;92619.28;;;5.94;87.20
21742;BME280;11033;47.490;11.116;2023-11-21T07:24:55;92624.34;;;5.53;89.31
21742;BME280;11033;47.490;11.116;2023-11-21T07:27:24;92621.22;;;5.79;88.42
21742;BME280;11033;47.490;11.116;2023-11-21T07:29:49;92615.13;;;5.93;86.99
21742;BME280;11033;47.490;11.116;2023-11-21T07:32:14;92620.75;;;5.98;86.35
21742;BME280;11033;47.490;11.116;2023-11-21T07:34:40;92619.63;;;5.99;86.30
21742;BME280;11033;47.490;11.116;2023-11-21T07:37:07;92615.13;;;6.00;87.22
21742;BME280;11033;47.490;11.116;2023-11-21T07:39:32;92616.59;;;6.01;87.66
21742;BME280;11033;47.490;11.116;2023-11-21T07:41:57;92612.06;;;6.05;88.37
21742;BME280;11033;47.490;11.116;2023-11-21T07:44:23;92616.16;;;6.09;88.00
21742;BME280;11033;47.490;11.116;2023-11-21T07:46:48;92611.66;;;6.10;88.03
21742;BME280;11033;47.490;11.116;2023-11-21T07:49:14;92618.75;;;6.16;87.32
21742;BME280;11033;47.490;11.116;2023-11-21T07:51:42;92620.25;;;6.17;87.92
21742;BME280;11033;47.490;11.116;2023-11-21T07:54:07;92615.72;;;6.21;87.17
21742;BME280;11033;47.490;11.116;2023-11-21T07:56:32;92623.94;;;6.27;87.46
21742;BME280;11033;47.490;11.116;2023-11-21T07:58:58;92621.63;;;6.36;87.00
21742;BME280;11033;47.490;11.116;2023-11-21T08:01:23;92627.63;;;6.40;87.42
21742;BME280;11033;47.490;11.116;2023-11-21T08:03:49;92617.44;;;6.42;87.28
21742;BME280;11033;47.490;11.116;2023-11-21T08:06:17;92623.41;;;6.46;88.07
21742;BME280;11033;47.490;11.116;2023-11-21T08:08:42;92624.47;;;6.59;86.79
21742;BME280;11033;47.490;11.116;2023-11-21T08:11:08;92629.78;;;6.49;86.98
21742;BME280;11033;47.490;11.116;2023-11-21T08:13:35;92632.66;;;6.68;86.60
21742;BME280;11033;47.490;11.116;2023-11-21T08:16:00;92629.56;;;6.77;87.06
21742;BME280;11033;47.490;11.116;2023-11-21T08:18:30;92633.44;;;6.65;87.08
21742;BME280;11033;47.490;11.116;2023-11-21T08:20:55;92625.84;;;6.74;86.90
21742;BME280;11033;47.490;11.116;2023-11-21T08:23:21;92632.06;;;6.91;86.21
21742;BME280;11033;47.490;11.116;2023-11-21T08:25:50;92632.72;;;7.02;85.51
21742;BME280;11033;47.490;11.116;2023-11-21T08:28:15;92631.31;;;6.91;85.47
21742;BME280;11033;47.490;11.116;2023-11-21T08:30:41;92635.69;;;7.08;84.82
21742;BME280;11033;47.490;11.116;2023-11-21T08:33:07;92629.50;;;7.21;83.80
21742;BME280;11033;47.490;11.116;2023-11-21T08:35:33;92625.69;;;7.26;84.65
21742;BME280;11033;47.490;11.116;2023-11-21T08:37:59;92638.38;;;7.38;84.92
21742;BME280;11033;47.490;11.116;2023-11-21T08:40:24;92636.41;;;7.46;84.62
21742;BME280;11033;47.490;11.116;2023-11-21T08:42:50;92639.34;;;7.51;84.57
21742;BME280;11033;47.490;11.116;2023-11-21T08:45:18;92640.06;;;7.55;84.38
21742;BME280;11033;47.490;11.116;2023-11-21T08:47:43;92638.50;;;7.58;83.78
21742;BME280;11033;47.490;11.116;2023-11-21T08:50:12;92634.31;;;7.64;84.02
21742;BME280;11033;47.490;11.116;2023-11-21T08:52:38;92645.66;;;7.61;83.82
21742;BME280;11033;47.490;11.116;2023-11-21T08:55:04;92645.22;;;7.66;84.53
21742;BME280;11033;47.490;11.116;2023-11-21T08:57:36;92642.56;;;7.66;84.65
21742;BME280;11033;47.490;11.116;2023-11-21T09:00:06;92649.22;;;7.77;85.12
21742;BME280;11033;47.490;11.116;2023-11-21T09:02:35;92644.59;;;7.85;84.41
21742;BME280;11033;47.490;11.116;2023-11-21T09:05:02;92650.31;;;7.80;84.08
21742;BME280;11033;47.490;11.116;2023-11-21T09:07:28;92652.38;;;7.96;84.59
21742;BME280;11033;47.490;11.116;2023-11-21T09:09:54;92654.22;;;7.99;84.14
21742;BME280;11033;47.490;11.116;2023-11-21T09:12:20;92651.91;;;8.04;83.18
21742;BME280;11033;47.490;11.116;2023-11-21T09:14:46;92662.41;;;8.08;83.99
21742;BME280;11033;47.490;11.116;2023-11-21T09:17:11;92661.97;;;8.13;83.82
21742;BME280;11033;47.490;11.116;2023-11-21T09:19:37;92665.38;;;8.13;83.15
21742;BME280;11033;47.490;11.116;2023-11-21T09:22:03;92662.38;;;8.11;82.50
21742;BME280;11033;47.490;11.116;2023-11-21T09:24:30;92662.16;;;7.99;83.05
21742;BME280;11033;47.490;11.116;2023-11-21T09:26:56;92668.69;;;7.91;83.19
21742;BME280;11033;47.490;11.116;2023-11-21T09:29:21;92664.53;;;7.90;83.48
21742;BME280;11033;47.490;11.116;2023-11-21T09:31:47;92668.84;;;8.07;83.01
21742;BME280;11033;47.490;11.116;2023-11-21T09:34:12;92667.94;;;7.90;83.74
21742;BME280;11033;47.490;11.116;2023-11-21T09:36:39;92676.44;;;8.05;83.46
21742;BME280;11033;47.490;11.116;2023-11-21T09:39:06;92668.78;;;8.10;82.66
21742;BME280;11033;47.490;11.116;2023-11-21T09:41:43;92675.78;;;7.97;83.19
21742;BME280;11033;47.490;11.116;2023-11-21T09:44:13;92671.06;;;7.82;83.66
21742;BME280;11033;47.490;11.116;2023-11-21T09:46:41;92671.00;;;7.85;83.22
21742;BME280;11033;47.490;11.116;2023-11-21T09:49:09;92667.94;;;7.90;83.17
21742;BME280;11033;47.490;11.116;2023-11-21T09:51:39;92665.91;;;8.01;83.50
21742;BME280;11033;47.490;11.116;2023-11-21T09:54:07;92668.28;;;7.92;83.09
21742;BME280;11033;47.490;11.116;2023-11-21T09:56:35;92661.91;;;7.90;82.66
21742;BME280;11033;47.490;11.116;2023-11-21T09:59:01;92669.69;;;8.00;81.79
21742;BME280;11033;47.490;11.116;2023-11-21T10:01:32;92668.38;;;7.85;82.80
21742;BME280;11033;47.490;11.116;2023-11-21T10:03:57;92664.22;;;7.84;83.11
21742;BME280;11033;47.490;11.116;2023-11-21T10:06:24;92662.34;;;7.85;82.80
21742;BME280;11033;47.490;11.116;2023-11-21T10:08:52;92666.19;;;7.76;81.75
21742;BME280;11033;47.490;11.116;2023-11-21T10:11:19;92666.34;;;7.66;82.72
21742;BME280;11033;47.490;11.116;2023-11-21T10:13:47;92666.75;;;7.64;82.51
21742;BME280;11033;47.490;11.116;2023-11-21T10:16:15;92663.97;;;7.75;82.30
21742;BME280;11033;47.490;11.116;2023-11-21T10:18:47;92669.72;;;7.66;82.76
21742;BME280;11033;47.490;11.116;2023-11-21T10:21:13;92663.78;;;7.59;82.57
21742;BME280;11033;47.490;11.116;2023-11-21T10:23:39;92665.75;;;7.51;83.33
21742;BME280;11033;47.490;11.116;2023-11-21T10:26:05;92659.78;;;7.44;84.39
21742;BME280;11033;47.490;11.116;2023-11-21T10:28:35;92665.06;;;7.44;84.73
21742;BME280;11033;47.490;11.116;2023-11-21T10:31:02;92660.38;;;7.58;84.05
21742;BME280;11033;47.490;11.116;2023-11-21T10:33:28;92652.47;;;7.58;84.20
21742;BME280;11033;47.490;11.116;2023-11-21T10:35:57;92653.25;;;7.55;84.65
21742;BME280;11033;47.490;11.116;2023-11-21T10:38:23;92660.91;;;7.76;83.48
21742;BME280;11033;47.490;11.116;2023-11-21T10:40:50;92657.56;;;7.76;83.21
21742;BME280;11033;47.490;11.116;2023-11-21T10:43:16;92659.88;;;7.70;83.87
21742;BME280;11033;47.490;11.116;2023-11-21T10:45:42;92667.75;;;7.74;83.76
21742;BME280;11033;47.490;11.116;2023-11-21T10:48:09;92663.59;;;7.73;83.50
21742;BME280;11033;47.490;11.116;2023-11-21T10:50:40;92661.81;;;7.66;83.07
21742;BME280;11033;47.490;11.116;2023-11-21T10:53:05;92662.22;;;7.61;84.49
21742;BME280;11033;47.490;11.116;2023-11-21T10:55:32;92663.22;;;7.74;83.63
21742;BME280;11033;47.490;11.116;2023-11-21T10:57:59;92665.03;;;7.81;83.67
21742;BME280;11033;47.490;11.116;2023-11-21T11:00:26;92666.19;;;7.76;82.74
21742;BME280;11033;47.490;11.116;2023-11-21T11:02:52;92668.50;;;7.74;82.93
21742;BME280;11033;47.490;11.116;2023-11-21T11:05:28;92660.81;;;7.87;83.45
21742;BME280;11033;47.490;11.116;2023-11-21T11:08:05;92658.91;;;7.88;82.04
21742;BME280;11033;47.490;11.116;2023-11-21T11:10:31;92660.81;;;7.87;82.40
21742;BME280;11033;47.490;11.116;2023-11-21T11:12:58;92662.59;;;7.94;82.80
21742;BME280;11033;47.490;11.116;2023-11-21T11:15:25;92654.09;;;8.09;82.14
21742;BME280;11033;47.490;11.116;2023-11-21T11:17:51;92654.28;;;8.22;81.07
21742;BME280;11033;47.490;11.116;2023-11-21T11:20:17;92649.09;;;8.45;81.81
21742;BME280;11033;47.490;11.116;2023-11-21T11:23:04;92650.47;;;8.53;81.30
21742;BME280;11033;47.490;11.116;2023-11-21T11:28:21;92654.47;;;8.65;81.94
21742;BME280;11033;47.490;11.116;2023-11-21T11:30:57;92642.59;;;8.50;82.23
21742;BME280;11033;47.490;11.116;2023-11-21T11:36:14;92641.31;;;9.04;82.04
21742;BME280;11033;47.490;11.116;2023-11-21T11:38:46;92632.63;;;9.66;79.54
21742;BME280;11033;47.490;11.116;2023-11-21T11:41:11;92642.31;;;9.53;80.05
21742;BME280;11033;47.490;11.116;2023-11-21T11:43:37;92636.50;;;9.62;80.71
21742;BME280;11033;47.490;11.116;2023-11-21T11:46:10;92640.00;;;9.95;77.65
21742;BME280;11033;47.490;11.116;2023-11-21T11:48:39;92643.25;;;9.83;79.04
21742;BME280;11033;47.490;11.116;2023-11-21T11:51:06;92648.63;;;9.99;77.33
21742;BME280;11033;47.490;11.116;2023-11-21T11:53:41;92637.69;;;9.97;77.71
21742;BME280;11033;47.490;11.116;2023-11-21T11:56:29;92637.34;;;9.75;77.18
21742;BME280;11033;47.490;11.116;2023-11-21T11:58:58;92633.56;;;9.56;74.64
21742;BME280;11033;47.490;11.116;2023-11-21T12:01:27;92632.47;;;9.93;76.33
21742;BME280;11033;47.490;11.116;2023-11-21T12:06:36;92640.97;;;9.85;74.69
21742;BME280;11033;47.490;11.116;2023-11-21T12:09:02;92636.31;;;10.08;75.22
21742;BME280;11033;47.490;11.116;2023-11-21T12:11:31;92637.88;;;10.06;75.15
21742;BME280;11033;47.490;11.116;2023-11-21T12:13:57;92638.09;;;10.31;75.53
21742;BME280;11033;47.490;11.116;2023-11-21T12:16:25;92631.06;;;10.25;74.54
21742;BME280;11033;47.490;11.116;2023-11-21T12:18:52;92634.22;;;10.00;76.11
21742;BME280;11033;47.490;11.116;2023-11-21T12:21:19;92633.66;;;10.08;75.48
21742;BME280;11033;47.490;11.116;2023-11-21T12:23:46;92645.56;;;10.00;75.48
21742;BME280;11033;47.490;11.116;2023-11-21T12:26:13;92637.28;;;9.79;75.47
21742;BME280;11033;47.490;11.116;2023-11-21T12:28:38;92637.78;;;9.93;75.80
21742;BME280;11033;47.490;11.116;2023-11-21T12:31:04;92635.31;;;9.83;76.06
21742;BME280;11033;47.490;11.116;2023-11-21T12:33:32;92637.81;;;9.90;76.15
21742;BME280;11033;47.490;11.116;2023-11-21T12:35:58;92643.25;;;9.83;75.65
21742;BME280;11033;47.490;11.116;2023-11-21T12:38:23;92642.06;;;9.67;76.51
21742;BME280;11033;47.490;11.116;2023-11-21T12:40:50;92636.16;;;9.60;76.21
21742;BME280;11033;47.490;11.116;2023-11-21T12:43:17;92644.31;;;9.69;76.65
21742;BME280;11033;47.490;11.116;2023-11-21T12:45:43;92641.78;;;9.42;76.72
21742;BME280;11033;47.490;11.116;2023-11-21T12:48:09;92643.56;;;9.29;76.61
21742;BME280;11033;47.490;11.116;2023-11-21T12:50:37;92653.25;;;9.36;77.04
21742;BME280;11033;47.490;11.116;2023-11-21T12:53:07;92643.22;;;9.04;77.56
21742;BME280;11033;47.490;11.116;2023-11-21T12:55:37;92645.09;;;9.07;76.99
21742;BME280;11033;47.490;11.116;2023-11-21T12:58:04;92651.78;;;9.11;76.80
21742;BME280;11033;47.490;11.116;2023-11-21T13:03:04;92640.13;;;8.86;79.28
21742;BME280;11033;47.490;11.116;2023-11-21T13:05:33;92641.06;;;8.99;79.26
21742;BME280;11033;47.490;11.116;2023-11-21T13:08:01;92641.00;;;9.02;78.31